sensor_id;sensor_type;location;lat;lon;timestamp;pressure;altitude;pressure_sealevel;temperature;humidity
37170;BME280;23062;13.952;100.608;2023-01-25T00:01:55;1013.76;;;27.08;41.82
37170;BME280;23062;13.952;100.608;2023-01-25T00:06:20;1013.86;;;27.04;41.49
37170;BME280;23062;13.952;100.608;2023-01-25T00:10:49;1013.89;;;26.83;41.61
37170;BME280;23062;13.952;100.608;2023-01-25T00:15:13;1013.90;;;26.84;41.86
37170;BME280;23062;13.952;100.608;2023-01-25T00:19:39;1013.92;;;26.96;41.70
37170;BME280;23062;13.952;100.608;2023-01-25T00:24:06;1013.94;;;27.00;41.91
37170;BME280;23062;13.952;100.608;2023-01-25T00:28:33;1014.13;;;26.89;41.88
37170;BME280;23062;13.952;100.608;2023-01-25T00:37:36;1014.25;;;27.08;41.61
37170;BME280;23062;13.952;100.608;2023-01-25T00:42:02;1014.35;;;27.10;41.77
37170;BME280;23062;13.952;100.608;2023-01-25T00:46:33;1014.46;;;27.11;41.40
37170;BME280;23062;13.952;100.608;2023-01-25T00:51:03;1014.48;;;27.12;41.60
37170;BME280;23062;13.952;100.608;2023-01-25T00:55:28;1014.56;;;26.84;41.67
37170;BME280;23062;13.952;100.608;2023-01-25T00:59:54;1014.64;;;26.83;41.51
37170;BME280;23062;13.952;100.608;2023-01-25T01:04:21;1014.65;;;26.70;41.57
37170;BME280;23062;13.952;100.608;2023-01-25T01:08:48;1014.75;;;26.89;41.95
37170;BME280;23062;13.952;100.608;2023-01-25T01:13:15;1014.81;;;26.65;41.61
37170;BME280;23062;13.952;100.608;2023-01-25T01:17:40;1014.88;;;26.59;41.20
37170;BME280;23062;13.952;100.608;2023-01-25T01:22:05;1015.00;;;26.92;41.00
37170;BME280;23062;13.952;100.608;2023-01-25T01:26:30;1015.05;;;27.18;40.78
37170;BME280;23062;13.952;100.608;2023-01-25T01:31:03;1015.06;;;27.11;40.36
37170;BME280;23062;13.952;100.608;2023-01-25T01:35:31;1015.22;;;27.00;40.37
37170;BME280;23062;13.952;100.608;2023-01-25T01:40:00;1015.24;;;26.98;40.52
37170;BME280;23062;13.952;100.608;2023-01-25T01:44:47;1015.36;;;26.77;40.61
37170;BME280;23062;13.952;100.608;2023-01-25T01:49:20;1015.49;;;26.79;40.50
37170;BME280;23062;13.952;100.608;2023-01-25T01:53:56;1015.56;;;26.97;40.34
37170;BME280;23062;13.952;100.608;2023-01-25T01:58:13;1015.61;;;27.12;40.41
37170;BME280;23062;13.952;100.608;2023-01-25T02:02:39;1015.67;;;27.18;40.36
37170;BME280;23062;13.952;100.608;2023-01-25T02:07:19;1015.81;;;27.22;40.05
37170;BME280;23062;13.952;100.608;2023-01-25T02:11:41;1015.86;;;27.00;39.92
37170;BME280;23062;13.952;100.608;2023-01-25T02:16:18;1015.87;;;27.19;40.52
37170;BME280;23062;13.952;100.608;2023-01-25T02:20:45;1015.87;;;27.19;40.15
37170;BME280;23062;13.952;100.608;2023-01-25T02:25:11;1015.89;;;27.41;40.07
37170;BME280;23062;13.952;100.608;2023-01-25T02:29:37;1015.91;;;27.43;39.50
37170;BME280;23062;13.952;100.608;2023-01-25T02:34:03;1015.91;;;27.31;39.84
37170;BME280;23062;13.952;100.608;2023-01-25T02:38:29;1015.97;;;27.45;40.19
37170;BME280;23062;13.952;100.608;2023-01-25T02:42:56;1015.95;;;27.28;39.72
37170;BME280;23062;13.952;100.608;2023-01-25T02:47:21;1015.97;;;27.35;40.27
37170;BME280;23062;13.952;100.608;2023-01-25T02:51:49;1015.96;;;27.35;39.48
37170;BME280;23062;13.952;100.608;2023-01-25T02:56:15;1015.94;;;27.16;39.81
37170;BME280;23062;13.952;100.608;2023-01-25T03:00:41;1015.91;;;27.25;39.77
37170;BME280;23062;13.952;100.608;2023-01-25T03:05:10;1015.90;;;27.47;40.10
37170;BME280;23062;13.952;100.608;2023-01-25T03:09:34;1015.88;;;27.55;39.75
37170;BME280;23062;13.952;100.608;2023-01-25T03:14:07;1015.78;;;27.69;39.74
37170;BME280;23062;13.952;100.608;2023-01-25T03:18:34;1015.80;;;27.77;40.27
37170;BME280;23062;13.952;100.608;2023-01-25T03:23:00;1015.70;;;27.71;39.50
37170;BME280;23062;13.952;100.608;2023-01-25T03:27:32;1015.73;;;27.77;39.95
37170;BME280;23062;13.952;100.608;2023-01-25T03:31:54;1015.64;;;27.92;40.16
37170;BME280;23062;13.952;100.608;2023-01-25T03:36:22;1015.67;;;27.97;40.46
37170;BME280;23062;13.952;100.608;2023-01-25T03:40:50;1015.59;;;27.91;39.90
37170;BME280;23062;13.952;100.608;2023-01-25T03:45:15;1015.55;;;28.05;39.99
37170;BME280;23062;13.952;100.608;2023-01-25T03:49:40;1015.55;;;28.10;39.67
37170;BME280;23062;13.952;100.608;2023-01-25T03:54:06;1015.48;;;28.18;40.06
37170;BME280;23062;13.952;100.608;2023-01-25T03:58:32;1015.42;;;28.25;40.19
37170;BME280;23062;13.952;100.608;2023-01-25T04:02:58;1015.45;;;28.29;40.39
37170;BME280;23062;13.952;100.608;2023-01-25T04:07:22;1015.33;;;28.23;40.19
37170;BME280;23062;13.952;100.608;2023-01-25T04:11:49;1015.24;;;28.29;40.36
37170;BME280;23062;13.952;100.608;2023-01-25T04:16:13;1015.17;;;28.35;40.64
37170;BME280;23062;13.952;100.608;2023-01-25T04:20:38;1014.95;;;28.23;39.67
37170;BME280;23062;13.952;100.608;2023-01-25T04:25:04;1014.92;;;28.32;40.39
37170;BME280;23062;13.952;100.608;2023-01-25T04:29:29;1014.77;;;28.38;39.96
37170;BME280;23062;13.952;100.608;2023-01-25T04:33:55;1014.68;;;28.46;40.30
37170;BME280;23062;13.952;100.608;2023-01-25T04:38:20;1014.67;;;28.42;40.27
37170;BME280;23062;13.952;100.608;2023-01-25T04:42:46;1014.50;;;28.45;40.38
37170;BME280;23062;13.952;100.608;2023-01-25T04:47:11;1014.41;;;28.28;40.01
37170;BME280;23062;13.952;100.608;2023-01-25T04:51:36;1014.39;;;28.41;40.23
37170;BME280;23062;13.952;100.608;2023-01-25T04:56:01;1014.41;;;28.45;40.13
37170;BME280;23062;13.952;100.608;2023-01-25T05:00:29;1014.25;;;28.36;39.31
37170;BME280;23062;13.952;100.608;2023-01-25T05:04:55;1014.06;;;28.33;39.76
37170;BME280;23062;13.952;100.608;2023-01-25T05:09:20;1013.88;;;28.42;40.07
37170;BME280;23062;13.952;100.608;2023-01-25T05:13:45;1013.98;;;28.51;40.27
37170;BME280;23062;13.952;100.608;2023-01-25T05:18:10;1013.95;;;28.59;40.52
37170;BME280;23062;13.952;100.608;2023-01-25T05:22:37;1013.85;;;28.52;39.76
37170;BME280;23062;13.952;100.608;2023-01-25T05:27:04;1013.76;;;28.61;40.23
37170;BME280;23062;13.952;100.608;2023-01-25T05:31:31;1013.68;;;28.66;40.29
37170;BME280;23062;13.952;100.608;2023-01-25T05:35:59;1013.63;;;28.64;40.44
37170;BME280;23062;13.952;100.608;2023-01-25T05:40:24;1013.47;;;28.68;40.59
37170;BME280;23062;13.952;100.608;2023-01-25T05:44:49;1013.35;;;28.72;40.68
37170;BME280;23062;13.952;100.608;2023-01-25T05:49:18;1013.22;;;28.68;40.20
37170;BME280;23062;13.952;100.608;2023-01-25T05:53:43;1013.10;;;28.71;39.75
37170;BME280;23062;13.952;100.608;2023-01-25T05:58:08;1012.95;;;28.76;40.13
37170;BME280;23062;13.952;100.608;2023-01-25T06:02:33;1012.89;;;28.76;40.29
37170;BME280;23062;13.952;100.608;2023-01-25T06:06:59;1012.80;;;28.79;40.20
37170;BME280;23062;13.952;100.608;2023-01-25T06:11:24;1012.65;;;28.83;40.20
37170;BME280;23062;13.952;100.608;2023-01-25T06:15:57;1012.52;;;28.81;40.18
37170;BME280;23062;13.952;100.608;2023-01-25T06:20:22;1012.52;;;28.84;40.17
37170;BME280;23062;13.952;100.608;2023-01-25T06:24:47;1012.42;;;28.88;39.87
37170;BME280;23062;13.952;100.608;2023-01-25T06:29:12;1012.32;;;28.88;39.54
37170;BME280;23062;13.952;100.608;2023-01-25T06:33:37;1012.24;;;28.93;39.92
37170;BME280;23062;13.952;100.608;2023-01-25T06:38:06;1012.12;;;28.90;39.74
37170;BME280;23062;13.952;100.608;2023-01-25T06:42:32;1012.07;;;28.93;39.59
37170;BME280;23062;13.952;100.608;2023-01-25T06:46:57;1012.05;;;28.92;39.60
37170;BME280;23062;13.952;100.608;2023-01-25T06:51:22;1011.95;;;28.93;39.45
37170;BME280;23062;13.952;100.608;2023-01-25T06:55:47;1011.85;;;28.89;39.74
37170;BME280;23062;13.952;100.608;2023-01-25T07:00:16;1011.74;;;28.92;39.37
37170;BME280;23062;13.952;100.608;2023-01-25T07:04:41;1011.63;;;28.93;39.37
37170;BME280;23062;13.952;100.608;2023-01-25T07:09:08;1011.56;;;28.92;39.35
37170;BME280;23062;13.952;100.608;2023-01-25T07:13:34;1011.53;;;28.97;39.08
37170;BME280;23062;13.952;100.608;2023-01-25T07:17:59;1011.47;;;28.99;39.01
37170;BME280;23062;13.952;100.608;2023-01-25T07:22:23;1011.39;;;28.97;39.18
37170;BME280;23062;13.952;100.608;2023-01-25T07:26:51;1011.39;;;28.99;39.11
37170;BME280;23062;13.952;100.608;2023-01-25T07:31:17;1011.29;;;29.03;39.13
37170;BME280;23062;13.952;100.608;2023-01-25T07:35:42;1011.26;;;29.02;39.16
37170;BME280;23062;13.952;100.608;2023-01-25T07:40:07;1011.20;;;29.04;38.99
37170;BME280;23062;13.952;100.608;2023-01-25T07:44:32;1011.19;;;29.01;39.19
37170;BME280;23062;13.952;100.608;2023-01-25T07:48:57;1011.14;;;29.02;39.38
37170;BME280;23062;13.952;100.608;2023-01-25T07:53:24;1011.10;;;29.01;39.39
37170;BME280;23062;13.952;100.608;2023-01-25T07:57:53;1011.07;;;29.05;39.35
37170;BME280;23062;13.952;100.608;2023-01-25T08:02:17;1010.99;;;29.06;39.23
37170;BME280;23062;13.952;100.608;2023-01-25T08:06:42;1010.91;;;29.06;39.07
37170;BME280;23062;13.952;100.608;2023-01-25T08:11:14;1010.92;;;29.06;39.36
37170;BME280;23062;13.952;100.608;2023-01-25T08:15:39;1010.89;;;29.09;39.39
37170;BME280;23062;13.952;100.608;2023-01-25T08:20:04;1010.83;;;29.10;39.43
37170;BME280;23062;13.952;100.608;2023-01-25T08:24:29;1010.85;;;29.11;39.35
37170;BME280;23062;13.952;100.608;2023-01-25T08:28:56;1010.71;;;29.10;39.24
37170;BME280;23062;13.952;100.608;2023-01-25T08:33:21;1010.69;;;29.08;39.41
37170;BME280;23062;13.952;100.608;2023-01-25T08:37:46;1010.66;;;29.13;39.16
37170;BME280;23062;13.952;100.608;2023-01-25T08:42:10;1010.63;;;29.12;39.53
37170;BME280;23062;13.952;100.608;2023-01-25T08:46:38;1010.66;;;29.13;39.49
37170;BME280;23062;13.952;100.608;2023-01-25T08:51:04;1010.63;;;29.13;39.31
37170;BME280;23062;13.952;100.608;2023-01-25T08:55:29;1010.65;;;29.14;39.06
37170;BME280;23062;13.952;100.608;2023-01-25T08:59:54;1010.64;;;29.12;39.25
37170;BME280;23062;13.952;100.608;2023-01-25T09:04:19;1010.71;;;29.14;39.37
37170;BME280;23062;13.952;100.608;2023-01-25T09:08:44;1010.73;;;29.11;39.41
37170;BME280;23062;13.952;100.608;2023-01-25T09:13:10;1010.72;;;29.12;39.01
37170;BME280;23062;13.952;100.608;2023-01-25T09:17:35;1010.70;;;29.12;39.44
37170;BME280;23062;13.952;100.608;2023-01-25T09:22:01;1010.78;;;29.13;39.27
37170;BME280;23062;13.952;100.608;2023-01-25T09:26:26;1010.68;;;29.13;39.30
37170;BME280;23062;13.952;100.608;2023-01-25T09:30:59;1010.71;;;29.17;39.21
37170;BME280;23062;13.952;100.608;2023-01-25T09:35:24;1010.70;;;29.16;39.47
37170;BME280;23062;13.952;100.608;2023-01-25T09:39:50;1010.77;;;29.14;39.00
37170;BME280;23062;13.952;100.608;2023-01-25T09:44:47;1010.79;;;29.17;38.98
37170;BME280;23062;13.952;100.608;2023-01-25T09:53:49;1010.93;;;29.17;39.14
37170;BME280;23062;13.952;100.608;2023-01-25T09:58:24;1011.00;;;29.15;39.22
37170;BME280;23062;13.952;100.608;2023-01-25T10:03:00;1011.07;;;29.09;39.14
37170;BME280;23062;13.952;100.608;2023-01-25T10:07:26;1011.10;;;29.10;39.16
37170;BME280;23062;13.952;100.608;2023-01-25T10:11:51;1011.17;;;29.09;39.22
37170;BME280;23062;13.952;100.608;2023-01-25T10:16:38;1011.25;;;29.04;39.32
37170;BME280;23062;13.952;100.608;2023-01-25T10:21:24;1011.30;;;29.02;38.94
37170;BME280;23062;13.952;100.608;2023-01-25T10:25:59;1011.41;;;29.03;39.20
37170;BME280;23062;13.952;100.608;2023-01-25T10:30:31;1011.48;;;29.00;39.27
37170;BME280;23062;13.952;100.608;2023-01-25T10:35:00;1011.57;;;29.01;39.27
37170;BME280;23062;13.952;100.608;2023-01-25T10:39:24;1011.59;;;28.95;39.39
37170;BME280;23062;13.952;100.608;2023-01-25T10:43:50;1011.66;;;28.96;39.33
37170;BME280;23062;13.952;100.608;2023-01-25T10:48:34;1011.71;;;28.89;39.23
37170;BME280;23062;13.952;100.608;2023-01-25T10:53:00;1011.76;;;28.90;39.56
37170;BME280;23062;13.952;100.608;2023-01-25T10:57:24;1011.81;;;28.92;40.23
37170;BME280;23062;13.952;100.608;2023-01-25T11:01:49;1011.83;;;28.80;41.11
37170;BME280;23062;13.952;100.608;2023-01-25T11:06:14;1011.89;;;28.67;41.68
37170;BME280;23062;13.952;100.608;2023-01-25T11:10:44;1011.92;;;28.67;41.83
37170;BME280;23062;13.952;100.608;2023-01-25T11:15:23;1011.91;;;28.57;41.86
37170;BME280;23062;13.952;100.608;2023-01-25T11:19:48;1011.98;;;28.55;41.78
37170;BME280;23062;13.952;100.608;2023-01-25T11:24:15;1012.03;;;28.55;41.70
37170;BME280;23062;13.952;100.608;2023-01-25T11:28:40;1012.06;;;28.53;41.36
37170;BME280;23062;13.952;100.608;2023-01-25T11:33:14;1012.08;;;28.50;41.42
37170;BME280;23062;13.952;100.608;2023-01-25T11:42:51;1012.20;;;28.52;41.14
37170;BME280;23062;13.952;100.608;2023-01-25T11:52:01;1012.36;;;28.49;41.27
37170;BME280;23062;13.952;100.608;2023-01-25T11:56:53;1012.44;;;28.48;41.20
37170;BME280;23062;13.952;100.608;2023-01-25T12:01:43;1012.49;;;28.52;40.94
37170;BME280;23062;13.952;100.608;2023-01-25T12:06:16;1012.59;;;28.52;40.90
37170;BME280;23062;13.952;100.608;2023-01-25T12:15:33;1012.76;;;28.16;41.33
37170;BME280;23062;13.952;100.608;2023-01-25T12:20:24;1012.78;;;28.00;41.54
37170;BME280;23062;13.952;100.608;2023-01-25T12:24:58;1012.88;;;27.89;41.83
37170;BME280;23062;13.952;100.608;2023-01-25T12:29:42;1012.99;;;27.84;42.02
37170;BME280;23062;13.952;100.608;2023-01-25T12:34:13;1013.12;;;27.84;42.12
37170;BME280;23062;13.952;100.608;2023-01-25T12:43:27;1013.26;;;28.43;40.74
37170;BME280;23062;13.952;100.608;2023-01-25T12:48:00;1013.35;;;28.52;40.62
37170;BME280;23062;13.952;100.608;2023-01-25T12:52:29;1013.41;;;28.51;40.93
37170;BME280;23062;13.952;100.608;2023-01-25T13:06:30;1013.64;;;28.72;40.78
37170;BME280;23062;13.952;100.608;2023-01-25T13:11:00;1013.73;;;28.76;40.79
37170;BME280;23062;13.952;100.608;2023-01-25T13:15:43;1013.75;;;28.77;40.79
37170;BME280;23062;13.952;100.608;2023-01-25T13:38:40;1014.03;;;28.81;40.81
37170;BME280;23062;13.952;100.608;2023-01-25T13:43:18;1014.02;;;28.80;40.87
37170;BME280;23062;13.952;100.608;2023-01-25T13:52:31;1013.99;;;28.82;40.89
37170;BME280;23062;13.952;100.608;2023-01-25T13:57:11;1013.98;;;28.82;40.96
37170;BME280;23062;13.952;100.608;2023-01-25T14:01:35;1013.97;;;28.81;41.00
37170;BME280;23062;13.952;100.608;2023-01-25T14:06:01;1014.02;;;28.80;41.05
37170;BME280;23062;13.952;100.608;2023-01-25T14:10:28;1014.06;;;28.81;41.06
37170;BME280;23062;13.952;100.608;2023-01-25T14:14:54;1014.00;;;28.79;41.07
37170;BME280;23062;13.952;100.608;2023-01-25T14:19:26;1013.95;;;28.79;41.09
37170;BME280;23062;13.952;100.608;2023-01-25T14:23:52;1013.99;;;28.80;41.12
37170;BME280;23062;13.952;100.608;2023-01-25T14:28:17;1014.03;;;28.79;41.14
37170;BME280;23062;13.952;100.608;2023-01-25T14:32:42;1014.00;;;28.79;41.13
37170;BME280;23062;13.952;100.608;2023-01-25T14:41:39;1014.00;;;28.79;41.18
37170;BME280;23062;13.952;100.608;2023-01-25T14:46:26;1013.98;;;28.78;41.26
37170;BME280;23062;13.952;100.608;2023-01-25T14:51:01;1014.02;;;28.78;41.31
37170;BME280;23062;13.952;100.608;2023-01-25T14:55:23;1014.06;;;28.77;41.35
37170;BME280;23062;13.952;100.608;2023-01-25T14:59:49;1014.10;;;28.76;41.39
37170;BME280;23062;13.952;100.608;2023-01-25T15:04:16;1014.11;;;28.75;41.35
37170;BME280;23062;13.952;100.608;2023-01-25T15:08:42;1014.07;;;28.75;41.40
37170;BME280;23062;13.952;100.608;2023-01-25T15:17:44;1014.07;;;28.75;41.40
37170;BME280;23062;13.952;100.608;2023-01-25T15:22:12;1014.13;;;28.75;41.39
37170;BME280;23062;13.952;100.608;2023-01-25T15:26:37;1014.05;;;28.74;41.36
37170;BME280;23062;13.952;100.608;2023-01-25T15:31:04;1014.03;;;28.73;41.42
37170;BME280;23062;13.952;100.608;2023-01-25T15:35:29;1014.01;;;28.73;41.37
37170;BME280;23062;13.952;100.608;2023-01-25T15:39:53;1014.02;;;28.73;41.28
37170;BME280;23062;13.952;100.608;2023-01-25T15:44:18;1014.01;;;28.73;41.30
37170;BME280;23062;13.952;100.608;2023-01-25T15:48:44;1013.96;;;28.72;41.26
37170;BME280;23062;13.952;100.608;2023-01-25T15:53:16;1013.93;;;28.71;41.41
37170;BME280;23062;13.952;100.608;2023-01-25T15:57:37;1013.98;;;28.71;41.43
37170;BME280;23062;13.952;100.608;2023-01-25T16:02:02;1013.95;;;28.71;41.44
37170;BME280;23062;13.952;100.608;2023-01-25T16:06:45;1013.92;;;28.70;41.39
37170;BME280;23062;13.952;100.608;2023-01-25T16:11:10;1013.94;;;28.71;41.45
37170;BME280;23062;13.952;100.608;2023-01-25T16:15:39;1013.86;;;28.69;41.48
37170;BME280;23062;13.952;100.608;2023-01-25T16:20:05;1013.87;;;28.68;41.41
37170;BME280;23062;13.952;100.608;2023-01-25T16:24:30;1013.82;;;28.68;41.41
37170;BME280;23062;13.952;100.608;2023-01-25T16:28:58;1013.77;;;28.67;41.32
37170;BME280;23062;13.952;100.608;2023-01-25T16:33:25;1013.74;;;28.67;41.31
37170;BME280;23062;13.952;100.608;2023-01-25T16:37:51;1013.68;;;28.66;41.42
37170;BME280;23062;13.952;100.608;2023-01-25T16:42:16;1013.68;;;28.65;41.38
37170;BME280;23062;13.952;100.608;2023-01-25T16:46:42;1013.60;;;28.65;41.51
37170;BME280;23062;13.952;100.608;2023-01-25T16:51:18;1013.56;;;28.65;41.94
37170;BME280;23062;13.952;100.608;2023-01-25T16:55:36;1013.52;;;28.61;42.12
37170;BME280;23062;13.952;100.608;2023-01-25T17:00:01;1013.48;;;28.62;42.22
37170;BME280;23062;13.952;100.608;2023-01-25T17:04:26;1013.48;;;28.61;42.24
37170;BME280;23062;13.952;100.608;2023-01-25T17:08:51;1013.47;;;28.61;42.39
37170;BME280;23062;13.952;100.608;2023-01-25T17:13:16;1013.51;;;28.57;42.61
37170;BME280;23062;13.952;100.608;2023-01-25T17:17:41;1013.51;;;28.58;42.60
37170;BME280;23062;13.952;100.608;2023-01-25T17:22:06;1013.46;;;28.58;42.67
37170;BME280;23062;13.952;100.608;2023-01-25T17:26:32;1013.39;;;28.57;42.57
37170;BME280;23062;13.952;100.608;2023-01-25T17:30:59;1013.37;;;28.58;42.71
37170;BME280;23062;13.952;100.608;2023-01-25T17:35:24;1013.33;;;28.56;42.82
37170;BME280;23062;13.952;100.608;2023-01-25T17:39:50;1013.28;;;28.56;42.89
37170;BME280;23062;13.952;100.608;2023-01-25T17:44:16;1013.31;;;28.55;42.86
37170;BME280;23062;13.952;100.608;2023-01-25T17:48:42;1013.33;;;28.56;42.86
37170;BME280;23062;13.952;100.608;2023-01-25T17:53:08;1013.33;;;28.55;42.95
37170;BME280;23062;13.952;100.608;2023-01-25T17:57:34;1013.32;;;28.54;42.91
37170;BME280;23062;13.952;100.608;2023-01-25T18:02:02;1013.29;;;28.53;43.05
37170;BME280;23062;13.952;100.608;2023-01-25T18:06:29;1013.24;;;28.53;43.00
37170;BME280;23062;13.952;100.608;2023-01-25T18:10:57;1013.25;;;28.51;43.13
37170;BME280;23062;13.952;100.608;2023-01-25T18:15:23;1013.22;;;28.51;43.20
37170;BME280;23062;13.952;100.608;2023-01-25T18:19:48;1013.07;;;28.50;43.26
37170;BME280;23062;13.952;100.608;2023-01-25T18:24:34;1013.02;;;28.50;43.27
37170;BME280;23062;13.952;100.608;2023-01-25T18:33:35;1012.88;;;28.49;43.38
37170;BME280;23062;13.952;100.608;2023-01-25T18:38:00;1012.79;;;28.47;43.37
37170;BME280;23062;13.952;100.608;2023-01-25T18:42:25;1012.75;;;28.47;43.32
37170;BME280;23062;13.952;100.608;2023-01-25T18:46:50;1012.65;;;28.44;43.22
37170;BME280;23062;13.952;100.608;2023-01-25T18:51:16;1012.64;;;28.45;43.22
37170;BME280;23062;13.952;100.608;2023-01-25T18:55:44;1012.64;;;28.43;43.27
37170;BME280;23062;13.952;100.608;2023-01-25T19:00:10;1012.59;;;28.41;43.26
37170;BME280;23062;13.952;100.608;2023-01-25T19:04:36;1012.55;;;28.41;43.35
37170;BME280;23062;13.952;100.608;2023-01-25T19:09:01;1012.53;;;28.40;43.36
37170;BME280;23062;13.952;100.608;2023-01-25T19:13:27;1012.42;;;28.39;43.38
37170;BME280;23062;13.952;100.608;2023-01-25T19:17:52;1012.41;;;28.36;43.47
37170;BME280;23062;13.952;100.608;2023-01-25T19:22:19;1012.33;;;28.37;43.50
37170;BME280;23062;13.952;100.608;2023-01-25T19:26:44;1012.24;;;28.35;43.50
37170;BME280;23062;13.952;100.608;2023-01-25T19:31:14;1012.23;;;28.33;43.59
37170;BME280;23062;13.952;100.608;2023-01-25T19:35:40;1012.17;;;28.34;43.67
37170;BME280;23062;13.952;100.608;2023-01-25T19:40:06;1012.08;;;28.32;43.78
37170;BME280;23062;13.952;100.608;2023-01-25T19:44:31;1012.00;;;28.31;43.76
37170;BME280;23062;13.952;100.608;2023-01-25T19:48:59;1011.92;;;28.34;43.78
37170;BME280;23062;13.952;100.608;2023-01-25T19:53:24;1011.92;;;28.34;43.87
37170;BME280;23062;13.952;100.608;2023-01-25T19:57:52;1011.93;;;28.18;44.38
37170;BME280;23062;13.952;100.608;2023-01-25T20:02:17;1011.85;;;27.95;44.76
37170;BME280;23062;13.952;100.608;2023-01-25T20:06:42;1011.82;;;27.84;45.06
37170;BME280;23062;13.952;100.608;2023-01-25T20:11:11;1011.88;;;27.47;45.97
37170;BME280;23062;13.952;100.608;2023-01-25T20:15:36;1011.79;;;27.19;46.86
37170;BME280;23062;13.952;100.608;2023-01-25T20:20:00;1011.77;;;27.12;47.21
37170;BME280;23062;13.952;100.608;2023-01-25T20:24:30;1011.70;;;27.44;46.50
37170;BME280;23062;13.952;100.608;2023-01-25T20:28:56;1011.67;;;27.52;46.40
37170;BME280;23062;13.952;100.608;2023-01-25T20:33:22;1011.62;;;27.55;46.49
37170;BME280;23062;13.952;100.608;2023-01-25T20:37:50;1011.64;;;27.56;46.54
37170;BME280;23062;13.952;100.608;2023-01-25T20:42:15;1011.61;;;27.55;46.68
37170;BME280;23062;13.952;100.608;2023-01-25T20:46:43;1011.57;;;27.51;46.96
37170;BME280;23062;13.952;100.608;2023-01-25T20:51:12;1011.61;;;27.49;47.03
37170;BME280;23062;13.952;100.608;2023-01-25T20:55:39;1011.61;;;27.46;47.27
37170;BME280;23062;13.952;100.608;2023-01-25T21:00:05;1011.55;;;27.45;47.37
37170;BME280;23062;13.952;100.608;2023-01-25T21:04:31;1011.53;;;27.42;47.47
37170;BME280;23062;13.952;100.608;2023-01-25T21:08:56;1011.55;;;27.38;47.83
37170;BME280;23062;13.952;100.608;2023-01-25T21:13:24;1011.54;;;27.37;48.08
37170;BME280;23062;13.952;100.608;2023-01-25T21:17:52;1011.58;;;27.37;48.28
37170;BME280;23062;13.952;100.608;2023-01-25T21:22:17;1011.57;;;27.34;48.40
37170;BME280;23062;13.952;100.608;2023-01-25T21:26:42;1011.48;;;27.32;48.58
37170;BME280;23062;13.952;100.608;2023-01-25T21:31:13;1011.53;;;27.30;48.74
37170;BME280;23062;13.952;100.608;2023-01-25T21:35:38;1011.56;;;27.29;48.87
37170;BME280;23062;13.952;100.608;2023-01-25T21:40:03;1011.61;;;27.28;49.11
37170;BME280;23062;13.952;100.608;2023-01-25T21:44:28;1011.70;;;27.07;49.76
37170;BME280;23062;13.952;100.608;2023-01-25T21:49:13;1011.67;;;26.61;51.46
37170;BME280;23062;13.952;100.608;2023-01-25T21:53:59;1011.67;;;26.55;52.49
37170;BME280;23062;13.952;100.608;2023-01-25T21:58:24;1011.71;;;26.41;54.49
37170;BME280;23062;13.952;100.608;2023-01-25T22:02:51;1011.76;;;26.26;57.11
37170;BME280;23062;13.952;100.608;2023-01-25T22:07:16;1011.81;;;26.27;56.77
37170;BME280;23062;13.952;100.608;2023-01-25T22:11:41;1011.82;;;26.02;57.55
37170;BME280;23062;13.952;100.608;2023-01-25T22:16:08;1011.83;;;26.12;57.34
37170;BME280;23062;13.952;100.608;2023-01-25T22:20:36;1011.85;;;26.18;56.63
37170;BME280;23062;13.952;100.608;2023-01-25T22:25:02;1011.91;;;26.15;56.29
37170;BME280;23062;13.952;100.608;2023-01-25T22:29:27;1011.91;;;25.84;56.92
37170;BME280;23062;13.952;100.608;2023-01-25T22:33:51;1011.96;;;25.53;57.98
37170;BME280;23062;13.952;100.608;2023-01-25T22:38:20;1012.01;;;26.26;56.55
37170;BME280;23062;13.952;100.608;2023-01-25T22:42:46;1012.05;;;26.51;55.02
37170;BME280;23062;13.952;100.608;2023-01-25T22:47:11;1012.08;;;26.64;54.77
37170;BME280;23062;13.952;100.608;2023-01-25T22:51:36;1012.14;;;26.67;54.25
37170;BME280;23062;13.952;100.608;2023-01-25T22:56:03;1012.15;;;26.62;53.50
37170;BME280;23062;13.952;100.608;2023-01-25T23:00:29;1012.25;;;26.68;53.13
37170;BME280;23062;13.952;100.608;2023-01-25T23:04:55;1012.32;;;26.72;52.82
37170;BME280;23062;13.952;100.608;2023-01-25T23:09:20;1012.33;;;26.73;52.13
37170;BME280;23062;13.952;100.608;2023-01-25T23:13:48;1012.38;;;26.74;51.31
37170;BME280;23062;13.952;100.608;2023-01-25T23:18:32;1012.42;;;26.74;51.53
37170;BME280;23062;13.952;100.608;2023-01-25T23:23:16;1012.53;;;26.72;50.93
37170;BME280;23062;13.952;100.608;2023-01-25T23:27:40;1012.61;;;26.72;51.39
37170;BME280;23062;13.952;100.608;2023-01-25T23:32:07;1012.68;;;26.71;51.45
37170;BME280;23062;13.952;100.608;2023-01-25T23:36:37;1012.71;;;26.67;50.86
37170;BME280;23062;13.952;100.608;2023-01-25T23:41:04;1012.75;;;26.67;50.65
37170;BME280;23062;13.952;100.608;2023-01-25T23:45:28;1012.81;;;26.66;50.79
37170;BME280;23062;13.952;100.608;2023-01-25T23:49:53;1012.83;;;26.65;50.28
37170;BME280;23062;13.952;100.608;2023-01-25T23:54:20;1012.88;;;26.64;50.82
37170;BME280;23062;13.952;100.608;2023-01-25T23:58:46;1012.94;;;26.65;50.65
